createdAt,value
2018-02-21T07:00:48.513Z,71.40
2018-02-21T07:03:17.916Z,77.97
2018-02-21T07:05:45.483Z,70.83
2018-02-21T07:08:13.024Z,79.87
2018-02-21T07:10:40.573Z,72.63
2018-02-21T07:13:08.261Z,82.10
2018-02-21T07:15:35.830Z,78.03
2018-02-21T07:18:03.368Z,76.57
2018-02-21T07:20:30.914Z,86.80
2018-02-21T07:22:59.215Z,86.90
2018-02-21T07:25:26.768Z,81.07
2018-02-21T07:27:54.352Z,82.20
2018-02-21T07:30:21.900Z,81.50
2018-02-21T07:32:49.457Z,88.63
2018-02-21T07:35:17.120Z,87.73
2018-02-21T07:37:44.658Z,92.50
2018-02-21T07:40:12.240Z,93.23
2018-02-21T07:42:39.781Z,91.70
2018-02-21T07:45:07.366Z,108.47
2018-02-21T07:47:34.909Z,89.73
2018-02-21T07:50:02.445Z,93.83
2018-02-21T07:52:30.776Z,102.10
2018-02-21T07:54:58.317Z,87.90
2018-02-21T07:57:25.921Z,113.80
2018-02-21T07:59:53.533Z,103.27
2018-02-21T08:02:22.483Z,96.93
2018-02-21T08:04:50.817Z,100.70
2018-02-21T08:07:18.356Z,96.13
2018-02-21T08:09:45.900Z,107.20
2018-02-21T08:12:13.455Z,98.17
2018-02-21T08:14:41.002Z,94.37
2018-02-21T08:17:08.567Z,100.17
2018-02-21T08:19:36.979Z,98.53
2018-02-21T08:22:04.540Z,95.77
2018-02-21T08:24:32.201Z,85.10
2018-02-21T08:26:59.780Z,92.07
2018-02-21T08:29:27.337Z,96.37
2018-02-21T08:31:54.880Z,99.97
2018-02-21T08:34:22.457Z,97.37
2018-02-21T08:36:50.013Z,97.07
2018-02-21T08:39:17.561Z,96.00
2018-02-21T08:41:45.119Z,110.17
2018-02-21T08:44:12.781Z,93.30
2018-02-21T08:46:40.315Z,91.23
2018-02-21T08:49:08.634Z,88.30
2018-02-21T08:51:36.200Z,95.77
2018-02-21T08:54:03.836Z,89.67
2018-02-21T08:56:31.386Z,92.20
2018-02-21T08:58:58.935Z,91.20
2018-02-21T09:01:26.476Z,97.63
2018-02-21T09:03:54.807Z,98.67
2018-02-21T09:06:22.456Z,90.53
2018-02-21T09:08:50.009Z,90.67
2018-02-21T09:11:17.568Z,90.90
2018-02-21T09:13:45.108Z,92.73
2018-02-21T09:16:13.436Z,87.37
2018-02-21T09:18:40.969Z,96.13
2018-02-21T09:21:08.529Z,88.17
2018-02-21T09:23:36.068Z,81.50
2018-02-21T09:26:03.616Z,83.43
2018-02-21T09:28:32.051Z,83.97
2018-02-21T09:30:59.606Z,89.97
2018-02-21T09:33:27.161Z,89.53
2018-02-21T09:35:54.695Z,93.60
2018-02-21T09:38:22.235Z,91.17
2018-02-21T09:40:49.812Z,92.90
2018-02-21T09:43:17.376Z,101.43
2018-02-21T09:45:44.908Z,88.17
2018-02-21T09:48:13.204Z,86.60
2018-02-21T09:50:40.765Z,90.17
2018-02-21T09:53:08.319Z,88.83
2018-02-21T09:55:36.623Z,90.13
2018-02-21T09:58:04.180Z,83.67
2018-02-21T10:00:32.732Z,94.73
2018-02-21T10:03:01.052Z,84.27
2018-02-21T10:05:28.596Z,87.10
2018-02-21T10:07:56.511Z,88.83
2018-02-21T10:10:24.072Z,91.10
2018-02-21T10:12:51.648Z,73.93
2018-02-21T10:15:19.961Z,93.23
2018-02-21T10:17:48.539Z,95.70
2018-02-21T10:20:16.072Z,90.67
2018-02-21T10:22:44.409Z,91.93
2018-02-21T10:25:11.991Z,84.83
2018-02-21T10:27:40.313Z,92.73
2018-02-21T10:30:07.983Z,89.43
2018-02-21T10:32:35.597Z,88.20
2018-02-21T10:35:03.116Z,95.30
2018-02-21T10:37:30.696Z,91.37
2018-02-21T10:39:58.256Z,85.70
2018-02-21T10:42:26.566Z,87.10
2018-02-21T10:44:54.895Z,77.70
2018-02-21T10:47:23.204Z,83.83
2018-02-21T10:49:50.765Z,95.60
2018-02-21T10:52:18.389Z,78.10
2018-02-21T10:54:46.754Z,68.67
2018-02-21T10:57:14.290Z,84.27
2018-02-21T10:59:42.603Z,79.00
2018-02-21T11:02:10.147Z,77.87
2018-02-21T11:04:37.684Z,75.87
2018-02-21T11:07:05.239Z,77.07
2018-02-21T11:09:33.534Z,73.97
2018-02-21T11:12:01.087Z,74.83
2018-02-21T11:14:30.511Z,79.73
2018-02-21T11:17:07.108Z,69.47
2018-02-21T11:19:34.698Z,76.33
2018-02-21T11:22:03.019Z,87.67
2018-02-21T11:24:30.566Z,84.00
2018-02-21T11:26:58.168Z,97.80
2018-02-21T11:29:26.487Z,90.60
2018-02-21T11:31:54.957Z,96.87
2018-02-21T11:34:23.374Z,87.27
2018-02-21T11:36:50.937Z,87.00
2018-02-21T11:39:18.470Z,93.80
2018-02-21T11:41:46.052Z,91.53
2018-02-21T11:44:13.583Z,92.40
2018-02-21T11:46:41.903Z,97.00
2018-02-21T11:49:09.431Z,91.40
2018-02-21T11:51:36.974Z,86.83
2018-02-21T11:54:05.272Z,95.43
2018-02-21T11:56:32.837Z,95.13
2018-02-21T11:59:00.375Z,75.03
2018-02-21T12:01:28.695Z,78.17
2018-02-21T12:03:56.248Z,83.57
2018-02-21T12:06:23.786Z,77.17
2018-02-21T12:08:51.339Z,81.30
2018-02-21T12:11:18.868Z,85.07
2018-02-21T12:13:46.428Z,82.57
2018-02-21T12:16:14.040Z,83.80
2018-02-21T12:18:41.597Z,79.70
2018-02-21T12:21:09.139Z,77.30
2018-02-21T12:23:36.702Z,75.13
2018-02-21T12:26:04.247Z,84.17
2018-02-21T12:28:31.807Z,77.03
2018-02-21T12:31:00.126Z,77.93
2018-02-21T12:33:27.696Z,73.63
2018-02-21T12:35:55.231Z,77.90
2018-02-21T12:38:22.767Z,84.90
2018-02-21T12:40:56.778Z,59.60
2018-02-21T12:43:25.077Z,63.63
2018-02-21T12:45:52.625Z,76.00
2018-02-21T12:48:20.160Z,67.40
2018-02-21T12:50:48.476Z,67.23
2018-02-21T12:53:16.015Z,43.27
2018-02-21T12:55:43.669Z,56.90
2018-02-21T12:58:11.965Z,60.77
2018-02-21T13:00:39.507Z,62.47
2018-02-21T13:03:07.064Z,60.90
2018-02-21T13:05:35.371Z,62.93
2018-02-21T13:08:02.929Z,51.07
2018-02-21T13:10:30.496Z,48.43
2018-02-21T13:12:58.033Z,48.43
2018-02-21T13:15:25.588Z,50.87
2018-02-21T13:17:53.159Z,56.53
2018-02-21T13:20:20.696Z,49.50
2018-02-21T13:22:49.008Z,50.07
2018-02-21T13:25:17.360Z,48.00
2018-02-21T13:27:44.900Z,51.77
2018-02-21T13:30:13.221Z,54.23
2018-02-21T13:32:40.773Z,55.23
2018-02-21T13:35:08.324Z,52.10
2018-02-21T13:37:35.965Z,47.63
2018-02-21T13:40:04.284Z,50.17
2018-02-21T13:42:31.825Z,59.90
2018-02-21T13:44:59.372Z,51.93
2018-02-21T13:47:27.856Z,55.17
2018-02-21T13:49:55.496Z,62.53
2018-02-21T13:52:23.837Z,57.10
2018-02-21T13:54:51.387Z,50.77
2018-02-21T13:57:18.933Z,67.50
2018-02-21T13:59:46.476Z,58.97
2018-02-21T14:02:14.023Z,55.13
2018-02-21T14:04:42.345Z,44.30
2018-02-21T14:07:09.879Z,58.90
2018-02-21T14:09:37.419Z,53.90
2018-02-21T14:12:05.827Z,54.77
2018-02-21T14:14:33.356Z,51.57
2018-02-21T14:17:01.663Z,55.63
2018-02-21T14:19:29.217Z,52.70
2018-02-21T14:21:57.279Z,54.90
2018-02-21T14:24:24.823Z,53.70
2018-02-21T14:26:53.152Z,53.10
2018-02-21T14:29:20.708Z,52.80
2018-02-21T14:31:48.236Z,54.20
2018-02-21T14:34:15.784Z,48.70
2018-02-21T14:36:44.116Z,60.50
2018-02-21T14:39:12.528Z,61.80
2018-02-21T14:41:40.848Z,48.50
2018-02-21T14:44:08.384Z,52.33
2018-02-21T14:46:35.916Z,55.30
2018-02-21T14:49:04.251Z,59.63
2018-02-21T14:51:31.781Z,55.10
2018-02-21T14:53:59.319Z,56.77
2018-02-21T14:56:27.623Z,58.20
2018-02-21T14:58:55.180Z,50.67
2018-02-21T15:01:22.723Z,54.80
2018-02-21T15:03:51.031Z,51.13
2018-02-21T15:06:18.670Z,56.20
2018-02-21T15:08:46.980Z,55.40
2018-02-21T15:11:14.520Z,55.67
2018-02-21T15:13:42.140Z,55.03
2018-02-21T15:16:15.335Z,56.10
2018-02-21T15:18:42.905Z,48.50
2018-02-21T15:21:11.212Z,51.30
2018-02-21T15:23:38.773Z,52.77
2018-02-21T15:26:06.323Z,54.03
2018-02-21T15:28:33.879Z,51.30
2018-02-21T15:31:01.448Z,57.23
2018-02-21T15:33:28.991Z,52.70
2018-02-21T15:35:57.291Z,57.53
2018-02-21T15:38:24.851Z,55.57
2018-02-21T15:40:52.383Z,56.73
2018-02-21T15:43:20.687Z,55.17
2018-02-21T15:45:48.349Z,48.77
2018-02-21T15:48:16.524Z,57.83
2018-02-21T15:50:44.080Z,52.87
2018-02-21T15:53:11.648Z,54.93
2018-02-21T15:55:39.216Z,58.97
2018-02-21T15:58:06.749Z,62.07
2018-02-21T16:00:34.305Z,62.43
2018-02-21T16:03:01.853Z,54.00
2018-02-21T16:05:30.176Z,49.23
2018-02-21T16:07:57.717Z,54.07
2018-02-21T16:10:25.283Z,58.43
2018-02-21T16:12:52.931Z,53.90
2018-02-21T16:15:20.472Z,56.53
2018-02-21T16:17:48.879Z,59.57
2018-02-21T16:20:16.412Z,58.27
2018-02-21T16:22:44.776Z,57.07
2018-02-21T16:25:13.081Z,56.00
2018-02-21T16:27:40.652Z,56.57
2018-02-21T16:30:08.212Z,58.40
2018-02-21T16:32:35.756Z,54.93
2018-02-21T16:35:03.300Z,53.63
2018-02-21T16:37:31.621Z,51.07
2018-02-21T16:39:59.270Z,51.03
2018-02-21T16:42:26.825Z,46.83
2018-02-21T16:44:54.372Z,49.30
2018-02-21T16:47:21.928Z,54.53
2018-02-21T16:49:49.465Z,52.20
2018-02-21T16:52:17.772Z,48.33
2018-02-21T16:54:45.327Z,53.60
2018-02-21T16:57:12.861Z,53.87
2018-02-21T16:59:41.183Z,47.90
2018-02-21T17:02:08.724Z,50.10
2018-02-21T17:04:37.345Z,50.03
2018-02-21T17:07:05.689Z,50.10
2018-02-21T17:09:33.233Z,53.47
2018-02-21T17:12:01.541Z,56.07
2018-02-21T17:14:29.098Z,52.73
2018-02-21T17:16:56.652Z,55.83
2018-02-21T17:19:24.178Z,59.40
2018-02-21T17:21:52.810Z,56.83
2018-02-21T17:24:20.363Z,50.43
2018-02-21T17:26:47.895Z,51.57
2018-02-21T17:29:15.471Z,49.27
2018-02-21T17:31:43.053Z,55.30
2018-02-21T17:34:10.584Z,57.33
2018-02-21T17:36:38.137Z,49.30
2018-02-21T17:39:05.720Z,55.50
2018-02-21T17:41:35.132Z,56.40
2018-02-21T17:44:04.603Z,50.07
2018-02-21T17:46:33.599Z,58.83
2018-02-21T17:49:01.180Z,50.67
2018-02-21T17:51:28.727Z,56.73
2018-02-21T17:53:56.256Z,50.90
2018-02-21T17:56:24.680Z,53.97
2018-02-21T17:58:52.216Z,55.57
2018-02-21T18:01:19.758Z,52.33
2018-02-21T18:03:48.092Z,50.27
2018-02-21T18:06:15.629Z,56.40
2018-02-21T18:08:43.163Z,53.30
2018-02-21T18:11:11.479Z,47.97
2018-02-21T18:13:39.034Z,56.90
2018-02-21T18:16:06.691Z,56.50
2018-02-21T18:18:34.251Z,54.43
2018-02-21T18:21:01.811Z,45.60
2018-02-21T18:23:29.356Z,48.53
2018-02-21T18:25:56.931Z,45.87
2018-02-21T18:28:24.468Z,46.17
2018-02-21T18:30:52.016Z,50.60
2018-02-21T18:33:20.338Z,44.97
2018-02-21T18:35:47.884Z,46.50
2018-02-21T18:38:15.415Z,43.03
2018-02-21T18:40:43.826Z,42.60
2018-02-21T18:43:11.372Z,46.37
2018-02-21T18:45:38.904Z,41.50
2018-02-21T18:48:06.452Z,45.77
2018-02-21T18:50:33.984Z,47.57
2018-02-21T18:53:01.525Z,36.07
2018-02-21T18:55:29.096Z,40.90
2018-02-21T18:57:56.637Z,42.13
2018-02-21T19:00:24.183Z,36.80
2018-02-21T19:02:51.739Z,37.97
2018-02-21T19:05:19.300Z,41.10
2018-02-21T19:07:46.835Z,38.10
2018-02-21T19:10:15.158Z,37.87
2018-02-21T19:12:42.704Z,38.60
2018-02-21T19:15:10.240Z,31.37
2018-02-21T19:17:38.564Z,35.27
2018-02-21T19:20:06.141Z,35.00
2018-02-21T19:22:33.689Z,37.13
2018-02-21T19:25:01.243Z,36.37
2018-02-21T19:27:29.072Z,35.67
2018-02-21T19:29:57.576Z,36.57
2018-02-21T19:32:25.115Z,36.57
2018-02-21T19:34:53.391Z,37.93
2018-02-21T19:37:20.974Z,35.60
2018-02-21T19:39:48.504Z,36.67
2018-02-21T19:42:17.092Z,35.20
2018-02-21T19:44:44.657Z,35.87
2018-02-21T19:47:12.195Z,35.97
2018-02-21T19:49:40.499Z,35.77
2018-02-21T19:52:08.053Z,34.80
2018-02-21T19:54:35.593Z,29.73
2018-02-21T19:57:03.905Z,38.60
2018-02-21T19:59:31.471Z,36.73
2018-02-21T20:01:59.020Z,38.83
2018-02-21T20:04:26.575Z,40.00
2018-02-21T20:06:56.849Z,36.47
2018-02-21T20:09:24.483Z,40.97
2018-02-21T20:11:53.040Z,40.90
2018-02-21T20:14:20.597Z,42.20
2018-02-21T20:16:48.133Z,38.80
2018-02-21T20:19:17.374Z,40.53
2018-02-21T20:21:44.923Z,43.07
2018-02-21T20:24:12.457Z,42.03
2018-02-21T20:26:40.868Z,38.63
2018-02-21T20:29:08.411Z,43.33
2018-02-21T20:31:35.959Z,44.87
2018-02-21T20:34:04.296Z,48.10
2018-02-21T20:36:32.748Z,37.70
2018-02-21T20:39:00.286Z,42.67
2018-02-21T20:41:27.852Z,39.87
2018-02-21T20:43:55.873Z,44.90
2018-02-21T20:46:23.448Z,40.67
2018-02-21T20:48:51.876Z,41.60
2018-02-21T20:51:19.436Z,45.47
2018-02-21T20:53:46.996Z,42.53
2018-02-21T20:56:14.657Z,38.63
2018-02-21T20:58:42.221Z,43.17
2018-02-21T21:01:10.039Z,41.63
2018-02-21T21:03:39.809Z,43.47
2018-02-21T21:06:10.853Z,40.77
2018-02-21T21:08:40.972Z,47.77
2018-02-21T21:11:08.536Z,41.80
2018-02-21T21:13:36.097Z,39.53
2018-02-21T21:16:04.530Z,45.07
2018-02-21T21:18:32.472Z,42.20
2018-02-21T21:21:00.003Z,43.27
2018-02-21T21:23:27.572Z,40.97
2018-02-21T21:25:55.148Z,42.20
2018-02-21T21:28:22.685Z,41.83
2018-02-21T21:30:50.223Z,40.43
2018-02-21T21:33:17.779Z,45.20
2018-02-21T21:35:45.313Z,50.53
2018-02-21T21:38:13.633Z,44.40
2018-02-21T21:40:41.172Z,45.27
2018-02-21T21:43:08.754Z,45.60
2018-02-21T21:45:36.396Z,45.77
2018-02-21T21:48:03.923Z,42.57
2018-02-21T21:50:32.230Z,48.13
2018-02-21T21:52:59.787Z,45.47
2018-02-21T21:55:27.326Z,48.00
2018-02-21T21:57:55.626Z,46.37
2018-02-21T22:00:23.186Z,48.33
2018-02-21T22:02:50.735Z,42.67
2018-02-21T22:05:18.307Z,50.60
2018-02-21T22:07:46.614Z,49.43
2018-02-21T22:10:14.163Z,48.20
2018-02-21T22:12:41.736Z,46.53
2018-02-21T22:15:10.088Z,47.43
2018-02-21T22:17:37.639Z,43.60
2018-02-21T22:20:05.170Z,42.03
2018-02-21T22:22:33.479Z,49.30
2018-02-21T22:25:01.023Z,49.00
2018-02-21T22:27:28.593Z,44.80
2018-02-21T22:29:56.135Z,42.93
2018-02-21T22:32:24.431Z,46.63
2018-02-21T22:34:51.976Z,46.63
2018-02-21T22:37:20.543Z,41.00
2018-02-21T22:39:48.855Z,50.10
2018-02-21T22:42:16.514Z,48.70
2018-02-21T22:44:44.061Z,45.90
2018-02-21T22:47:11.607Z,43.37
2018-02-21T22:49:39.929Z,47.53
2018-02-21T22:52:07.572Z,52.53
2018-02-21T22:54:35.129Z,48.27
2018-02-21T22:57:02.769Z,48.93
2018-02-21T22:59:31.171Z,49.30
2018-02-21T23:01:58.711Z,46.10
2018-02-21T23:04:26.271Z,43.93
2018-02-21T23:06:53.822Z,47.73
2018-02-21T23:09:22.132Z,50.53
2018-02-21T23:11:49.667Z,39.00
2018-02-21T23:14:17.227Z,46.70
2018-02-21T23:16:44.759Z,40.53
2018-02-21T23:19:12.313Z,48.43
2018-02-21T23:21:39.868Z,48.43
2018-02-21T23:24:08.193Z,46.10
2018-02-21T23:26:35.732Z,51.13
2018-02-21T23:29:04.140Z,43.03
2018-02-21T23:31:31.676Z,49.57
2018-02-21T23:33:59.237Z,45.03
2018-02-21T23:36:26.783Z,49.17
2018-02-21T23:38:55.111Z,45.03
2018-02-21T23:41:22.667Z,47.13
2018-02-21T23:43:50.231Z,52.07
2018-02-21T23:46:17.784Z,43.70
2018-02-21T23:48:45.315Z,45.07
2018-02-21T23:51:12.872Z,45.20
2018-02-21T23:53:40.423Z,43.97
2018-02-21T23:56:08.744Z,44.93
2018-02-21T23:58:36.311Z,45.43
